createdAt,value
2023-02-06T00:01:50.425Z,101418.16
2023-02-06T00:04:20.594Z,101420.16
2023-02-06T00:06:49.671Z,101425.56
2023-02-06T00:09:18.116Z,101419.63
2023-02-06T00:11:46.550Z,101428.69
2023-02-06T00:14:14.986Z,101426.16
2023-02-06T00:16:43.461Z,101428.84
2023-02-06T00:19:11.890Z,101420.88
2023-02-06T00:21:41.742Z,101416.63
2023-02-06T00:24:10.220Z,101423.03
2023-02-06T00:26:38.660Z,101427.72
2023-02-06T00:29:07.175Z,101416.22
2023-02-06T00:31:35.651Z,101424.44
2023-02-06T00:34:05.008Z,101429.03
2023-02-06T00:36:34.676Z,101433.56
2023-02-06T00:39:05.158Z,101434.69
2023-02-06T00:41:33.580Z,101443.66
2023-02-06T00:44:01.986Z,101429.47
2023-02-06T00:46:30.553Z,101435.84
2023-02-06T00:48:58.962Z,101442.22
2023-02-06T00:51:27.471Z,101441.25
2023-02-06T00:53:55.873Z,101436.53
2023-02-06T00:56:25.705Z,101433.69
2023-02-06T00:58:54.142Z,101440.66
2023-02-06T01:01:22.615Z,101445.06
2023-02-06T01:03:51.062Z,101458.41
2023-02-06T01:06:19.735Z,101444.78
2023-02-06T01:08:49.051Z,101445.94
2023-02-06T01:11:21.287Z,101461.00
2023-02-06T01:13:51.371Z,101450.19
2023-02-06T01:16:22.951Z,101459.28
2023-02-06T01:18:51.956Z,101461.13
2023-02-06T01:21:22.560Z,101458.72
2023-02-06T01:23:53.731Z,101464.25
2023-02-06T01:26:25.764Z,101456.31
2023-02-06T01:28:56.680Z,101462.84
2023-02-06T01:31:27.855Z,101460.41
2023-02-06T01:33:57.480Z,101457.00
2023-02-06T01:36:26.579Z,101458.03
2023-02-06T01:38:55.560Z,101448.34
2023-02-06T01:41:25.094Z,101445.78
2023-02-06T01:44:15.862Z,101435.28
2023-02-06T01:46:47.337Z,101428.19
2023-02-06T01:49:21.605Z,101420.22
2023-02-06T01:51:52.681Z,101416.84
2023-02-06T01:54:21.396Z,101410.69
2023-02-06T01:56:54.071Z,101420.66
2023-02-06T01:59:25.715Z,101422.66
2023-02-06T02:01:54.146Z,101422.66
2023-02-06T02:04:27.664Z,101427.91
2023-02-06T02:07:07.521Z,101428.75
2023-02-06T02:09:36.431Z,101425.91
2023-02-06T02:12:05.318Z,101423.38
2023-02-06T02:14:35.827Z,101425.91
2023-02-06T02:17:26.044Z,101427.63
2023-02-06T02:20:47.550Z,101426.88
2023-02-06T02:23:30.584Z,101420.78
2023-02-06T02:26:45.680Z,101412.13
2023-02-06T02:30:07.626Z,101411.44
2023-02-06T02:33:32.708Z,101413.56
2023-02-06T02:36:11.176Z,101406.31
2023-02-06T02:38:53.480Z,101401.78
2023-02-06T02:41:29.740Z,101399.78
2023-02-06T02:44:06.058Z,101398.66
2023-02-06T02:46:39.011Z,101391.25
2023-02-06T02:49:13.034Z,101393.53
2023-02-06T02:51:43.957Z,101387.13
2023-02-06T02:54:12.653Z,101383.44
2023-02-06T02:56:42.028Z,101392.09
2023-02-06T02:59:16.617Z,101389.25
2023-02-06T03:01:53.927Z,101397.06
2023-02-06T03:04:27.017Z,101392.50
2023-02-06T03:07:10.113Z,101394.06
2023-02-06T03:09:51.476Z,101392.22
2023-02-06T03:12:27.874Z,101389.38
2023-02-06T03:15:01.014Z,101405.44
2023-02-06T03:17:36.852Z,101405.16
2023-02-06T03:20:09.387Z,101408.56
2023-02-06T03:22:41.238Z,101407.41
2023-02-06T03:25:17.408Z,101401.88
2023-02-06T03:27:48.223Z,101406.84
2023-02-06T03:30:19.398Z,101409.25
2023-02-06T03:32:51.540Z,101406.22
2023-02-06T03:35:24.075Z,101415.91
2023-02-06T03:37:54.859Z,101404.81
2023-02-06T03:40:24.098Z,101410.06
2023-02-06T03:42:57.624Z,101406.22
2023-02-06T03:45:31.535Z,101403.34
2023-02-06T03:48:04.086Z,101404.09
2023-02-06T03:50:34.616Z,101395.81
2023-02-06T03:53:06.614Z,101394.69
2023-02-06T03:55:36.218Z,101391.97
2023-02-06T03:58:11.252Z,101414.44
2023-02-06T04:00:42.386Z,101402.09
2023-02-06T04:03:12.188Z,101402.78
2023-02-06T04:05:41.304Z,101401.06
2023-02-06T04:08:11.133Z,101407.50
2023-02-06T04:10:39.534Z,101401.50
2023-02-06T04:13:07.922Z,101411.63
2023-02-06T04:15:36.735Z,101410.06
2023-02-06T04:18:06.211Z,101403.09
2023-02-06T04:20:40.942Z,101401.53
2023-02-06T04:23:10.903Z,101407.25
2023-02-06T04:25:39.402Z,101406.53
2023-02-06T04:28:07.916Z,101408.50
2023-02-06T04:30:36.444Z,101409.38
2023-02-06T04:33:05.454Z,101415.78
2023-02-06T04:35:34.072Z,101422.19
2023-02-06T04:38:02.642Z,101414.06
2023-02-06T04:40:32.477Z,101418.78
2023-02-06T04:43:01.314Z,101418.63
2023-02-06T04:45:29.765Z,101414.06
2023-02-06T04:47:59.546Z,101407.69
2023-02-06T04:50:31.319Z,101396.72
2023-02-06T04:53:00.168Z,101401.00
2023-02-06T04:55:28.964Z,101390.19
2023-02-06T04:57:58.768Z,101403.53
2023-02-06T05:00:27.337Z,101397.31
2023-02-06T05:02:55.796Z,101391.75
2023-02-06T05:05:24.246Z,101388.03
2023-02-06T05:07:52.735Z,101399.69
2023-02-06T05:10:21.428Z,101388.88
2023-02-06T05:12:50.960Z,101392.44
2023-02-06T05:15:21.039Z,101387.03
2023-02-06T05:17:49.441Z,101389.59
2023-02-06T05:20:18.254Z,101386.06
2023-02-06T05:22:46.761Z,101389.59
2023-02-06T05:25:15.244Z,101375.25
2023-02-06T05:27:43.681Z,101386.88
2023-02-06T05:30:14.446Z,101386.19
2023-02-06T05:32:44.507Z,101377.97
2023-02-06T05:35:13.061Z,101386.19
2023-02-06T05:37:41.529Z,101398.00
2023-02-06T05:40:12.181Z,101389.31
2023-02-06T05:42:40.565Z,101382.38
2023-02-06T05:45:10.812Z,101385.50
2023-02-06T05:47:39.995Z,101388.53
2023-02-06T05:50:10.920Z,101381.69
2023-02-06T05:52:39.440Z,101378.44
2023-02-06T05:55:09.664Z,101375.03
2023-02-06T05:57:38.136Z,101380.72
2023-02-06T06:00:08.942Z,101375.47
2023-02-06T06:02:37.336Z,101373.75
2023-02-06T06:05:06.804Z,101374.78
2023-02-06T06:07:36.623Z,101369.50
2023-02-06T06:10:06.877Z,101379.44
2023-02-06T06:12:35.288Z,101388.41
2023-02-06T06:15:03.758Z,101380.44
2023-02-06T06:17:33.422Z,101377.75
2023-02-06T06:20:01.891Z,101380.44
2023-02-06T06:22:30.338Z,101384.00
2023-02-06T06:25:00.394Z,101379.59
2023-02-06T06:27:28.859Z,101384.13
2023-02-06T06:29:57.235Z,101383.16
2023-02-06T06:32:25.649Z,101372.34
2023-02-06T06:34:54.027Z,101365.81
2023-02-06T06:37:22.567Z,101367.38
2023-02-06T06:39:50.982Z,101369.75
2023-02-06T06:42:20.914Z,101364.09
2023-02-06T06:44:49.371Z,101366.34
2023-02-06T06:47:17.856Z,101360.50
2023-02-06T06:49:46.247Z,101369.88
2023-02-06T06:52:24.423Z,101358.63
2023-02-06T06:54:53.654Z,101360.91
2023-02-06T06:57:23.892Z,101357.75
2023-02-06T06:59:52.710Z,101354.75
2023-02-06T07:02:21.123Z,101368.66
2023-02-06T07:04:49.568Z,101361.97
2023-02-06T07:07:18.022Z,101363.38
2023-02-06T07:09:46.575Z,101357.66
2023-02-06T07:12:15.008Z,101358.38
2023-02-06T07:14:44.887Z,101360.94
2023-02-06T07:17:13.572Z,101371.75
2023-02-06T07:19:42.072Z,101363.47
2023-02-06T07:22:10.508Z,101362.31
2023-02-06T07:24:38.960Z,101367.44
2023-02-06T07:27:07.714Z,101355.31
2023-02-06T07:29:36.302Z,101369.09
2023-02-06T07:32:06.807Z,101353.84
2023-02-06T07:34:36.669Z,101363.59
2023-02-06T07:37:05.286Z,101364.38
2023-02-06T07:39:33.913Z,101370.72
2023-02-06T07:42:02.384Z,101370.81
2023-02-06T07:44:30.751Z,101372.59
2023-02-06T07:46:59.201Z,101383.34
2023-02-06T07:49:29.044Z,101381.44
2023-02-06T07:51:57.566Z,101381.81
2023-02-06T07:54:26.186Z,101379.50
2023-02-06T07:56:54.612Z,101377.03
2023-02-06T07:59:23.597Z,101370.97
2023-02-06T08:01:52.110Z,101376.63
2023-02-06T08:04:20.886Z,101367.88
2023-02-06T08:06:50.686Z,101366.38
2023-02-06T08:09:19.159Z,101365.91
2023-02-06T08:11:47.717Z,101362.72
2023-02-06T08:14:16.178Z,101368.38
2023-02-06T08:16:44.827Z,101365.91
2023-02-06T08:19:13.355Z,101363.53
2023-02-06T08:21:42.844Z,101361.88
2023-02-06T08:24:13.843Z,101367.84
2023-02-06T08:26:43.838Z,101371.78
2023-02-06T08:29:14.479Z,101373.69
2023-02-06T08:31:44.444Z,101373.75
2023-02-06T08:34:15.799Z,101379.03
2023-02-06T08:36:44.756Z,101377.91
2023-02-06T08:39:15.995Z,101381.00
2023-02-06T08:41:45.654Z,101377.78
2023-02-06T08:44:18.234Z,101385.44
2023-02-06T08:46:49.690Z,101393.78
2023-02-06T08:49:23.680Z,101393.47
2023-02-06T08:51:52.131Z,101399.75
2023-02-06T08:54:24.873Z,101401.81
2023-02-06T08:56:56.426Z,101394.03
2023-02-06T08:59:25.230Z,101389.97
2023-02-06T09:01:53.664Z,101393.56
2023-02-06T09:04:22.403Z,101383.59
2023-02-06T09:06:52.217Z,101383.25
2023-02-06T09:09:22.126Z,101386.50
2023-02-06T09:11:50.650Z,101382.59
2023-02-06T09:14:20.396Z,101381.09
2023-02-06T09:16:48.866Z,101376.69
2023-02-06T09:19:17.402Z,101376.34
2023-02-06T09:21:45.951Z,101368.03
2023-02-06T09:24:14.466Z,101379.91
2023-02-06T09:26:58.939Z,101388.41
2023-02-06T09:29:29.591Z,101379.06
2023-02-06T09:31:58.467Z,101376.84
2023-02-06T09:34:27.389Z,101376.34
2023-02-06T09:36:56.906Z,101372.44
2023-02-06T09:39:26.354Z,101379.41
2023-02-06T09:42:04.408Z,101378.22
2023-02-06T09:44:36.932Z,101375.84
2023-02-06T09:47:25.030Z,101376.00
2023-02-06T09:49:58.996Z,101372.75
2023-02-06T09:52:58.494Z,101372.75
2023-02-06T09:55:34.622Z,101372.06
2023-02-06T09:58:19.181Z,101370.88
2023-02-06T10:00:54.548Z,101365.94
2023-02-06T10:03:57.711Z,101356.59
2023-02-06T10:06:29.147Z,101363.00
2023-02-06T10:09:04.393Z,101347.19
2023-02-06T10:11:48.050Z,101350.09
2023-02-06T10:14:25.516Z,101341.06
2023-02-06T10:17:01.063Z,101338.69
2023-02-06T10:19:43.864Z,101326.44
2023-02-06T10:22:19.814Z,101332.41
2023-02-06T10:24:59.705Z,101322.56
2023-02-06T10:27:28.162Z,101317.13
2023-02-06T10:29:58.100Z,101308.59
2023-02-06T10:32:39.850Z,101311.28
2023-02-06T10:35:33.470Z,101305.25
2023-02-06T10:38:47.114Z,101303.00
2023-02-06T10:41:30.196Z,101298.72
2023-02-06T10:44:06.216Z,101296.19
2023-02-06T10:46:44.835Z,101288.38
2023-02-06T10:49:24.116Z,101285.47
2023-02-06T10:51:56.888Z,101287.16
2023-02-06T10:54:31.503Z,101285.41
2023-02-06T10:57:01.125Z,101279.88
2023-02-06T10:59:35.013Z,101275.31
2023-02-06T11:02:23.403Z,101267.00
2023-02-06T11:05:00.938Z,101257.88
2023-02-06T11:07:34.582Z,101259.03
2023-02-06T11:10:03.337Z,101249.38
2023-02-06T11:12:37.493Z,101247.38
2023-02-06T11:15:17.791Z,101248.19
2023-02-06T11:17:47.966Z,101244.34
2023-02-06T11:20:24.160Z,101243.66
2023-02-06T11:22:53.732Z,101231.38
2023-02-06T11:25:29.170Z,101224.69
2023-02-06T11:27:59.221Z,101223.41
2023-02-06T11:30:36.450Z,101216.81
2023-02-06T11:33:09.393Z,101215.56
2023-02-06T11:35:48.753Z,101199.75
2023-02-06T11:38:21.101Z,101208.97
2023-02-06T11:41:00.726Z,101208.25
2023-02-06T11:43:33.499Z,101197.34
2023-02-06T11:46:17.794Z,101201.06
2023-02-06T11:49:03.691Z,101206.22
2023-02-06T11:51:49.530Z,101201.53
2023-02-06T11:54:25.125Z,101198.78
2023-02-06T11:56:59.782Z,101196.75
2023-02-06T11:59:28.783Z,101195.81
2023-02-06T12:02:01.422Z,101198.25
2023-02-06T12:04:41.374Z,101200.03
2023-02-06T12:07:18.088Z,101201.31
2023-02-06T12:09:46.530Z,101186.78
2023-02-06T12:12:24.031Z,101184.28
2023-02-06T12:14:56.921Z,101181.97
2023-02-06T12:17:29.798Z,101190.69
2023-02-06T12:20:06.692Z,101186.25
2023-02-06T12:22:47.157Z,101185.44
2023-02-06T12:25:35.873Z,101190.50
2023-02-06T12:28:11.698Z,101183.94
2023-02-06T12:30:46.663Z,101185.59
2023-02-06T12:33:22.261Z,101171.78
2023-02-06T12:35:59.655Z,101178.25
2023-02-06T12:38:42.626Z,101169.75
2023-02-06T12:41:32.595Z,101171.59
2023-02-06T12:44:11.640Z,101170.72
2023-02-06T12:46:41.894Z,101164.75
2023-02-06T12:49:21.622Z,101162.81
2023-02-06T12:52:04.829Z,101155.59
2023-02-06T12:54:40.424Z,101173.25
2023-02-06T12:57:17.205Z,101165.50
2023-02-06T13:00:14.497Z,101150.63
2023-02-06T13:03:26.681Z,101151.34
2023-02-06T13:06:01.791Z,101152.47
2023-02-06T13:08:42.722Z,101152.34
2023-02-06T13:11:28.872Z,101136.59
2023-02-06T13:14:07.356Z,101137.69
2023-02-06T13:16:56.205Z,101133.56
2023-02-06T13:19:33.024Z,101130.19
2023-02-06T13:22:47.035Z,101133.09
2023-02-06T13:25:53.844Z,101115.25
2023-02-06T13:28:44.591Z,101111.97
2023-02-06T13:31:31.457Z,101108.84
2023-02-06T13:34:07.124Z,101112.06
2023-02-06T13:36:52.421Z,101113.03
2023-02-06T13:39:29.711Z,101110.38
2023-02-06T13:42:19.339Z,101112.06
2023-02-06T13:44:47.908Z,101118.09
2023-02-06T13:48:18.436Z,101123.22
2023-02-06T13:51:20.175Z,101119.69
2023-02-06T13:54:40.709Z,101114.94
2023-02-06T13:57:33.885Z,101125.75
2023-02-06T14:00:13.275Z,101128.56
2023-02-06T14:02:45.463Z,101127.63
2023-02-06T14:05:20.698Z,101126.88
2023-02-06T14:08:06.191Z,101137.59
2023-02-06T14:11:07.184Z,101134.28
2023-02-06T14:13:51.826Z,101128.91
2023-02-06T14:16:35.685Z,101126.41
2023-02-06T14:19:09.618Z,101122.97
2023-02-06T14:21:51.558Z,101137.28
2023-02-06T14:24:44.121Z,101142.75
2023-02-06T14:27:30.193Z,101155.44
2023-02-06T14:30:11.438Z,101149.06
2023-02-06T14:32:56.454Z,101145.69
2023-02-06T14:35:56.818Z,101150.69
2023-02-06T14:39:08.256Z,101160.94
2023-02-06T14:41:39.775Z,101166.66
2023-02-06T14:44:14.584Z,101165.81
2023-02-06T14:46:46.653Z,101159.13
2023-02-06T14:49:28.426Z,101168.13
2023-02-06T14:51:57.004Z,101166.47
2023-02-06T14:54:32.725Z,101169.75
2023-02-06T14:57:04.419Z,101175.78
2023-02-06T14:59:33.089Z,101182.34
2023-02-06T15:02:15.287Z,101173.13
2023-02-06T15:04:47.750Z,101166.63
2023-02-06T15:07:26.631Z,101169.25
2023-02-06T15:10:05.737Z,101157.66
2023-02-06T15:12:35.750Z,101154.53
2023-02-06T15:15:18.354Z,101162.69
2023-02-06T15:18:04.712Z,101170.44
2023-02-06T15:20:39.240Z,101167.13
2023-02-06T15:23:18.133Z,101176.56
2023-02-06T15:26:06.525Z,101185.16
2023-02-06T15:28:38.776Z,101192.31
2023-02-06T15:31:19.717Z,101195.03
2023-02-06T15:33:53.244Z,101202.88
2023-02-06T15:36:30.711Z,101198.19
2023-02-06T15:39:00.709Z,101196.19
2023-02-06T15:41:31.327Z,101208.78
2023-02-06T15:44:05.200Z,101211.34
2023-02-06T15:46:34.115Z,101209.34
2023-02-06T15:49:04.343Z,101199.19
2023-02-06T15:51:42.318Z,101197.16
2023-02-06T15:54:22.681Z,101199.72
2023-02-06T15:56:54.896Z,101203.16
2023-02-06T15:59:27.296Z,101206.22
2023-02-06T16:02:00.639Z,101208.59
2023-02-06T16:04:35.161Z,101203.88
2023-02-06T16:07:13.729Z,101215.25
2023-02-06T16:09:54.865Z,101222.06
2023-02-06T16:12:23.967Z,101238.03
2023-02-06T16:14:59.568Z,101237.00
2023-02-06T16:17:33.334Z,101239.56
2023-02-06T16:20:05.542Z,101247.38
2023-02-06T16:22:38.397Z,101255.16
2023-02-06T16:25:25.873Z,101262.28
2023-02-06T16:27:54.409Z,101270.75
2023-02-06T16:30:30.312Z,101269.25
2023-02-06T16:33:02.116Z,101278.38
2023-02-06T16:35:32.009Z,101290.59
2023-02-06T16:38:00.515Z,101292.97
2023-02-06T16:40:29.055Z,101297.56
2023-02-06T16:42:57.456Z,101295.00
2023-02-06T16:45:28.460Z,101301.97
2023-02-06T16:47:57.066Z,101308.56
2023-02-06T16:50:25.766Z,101298.22
2023-02-06T16:52:58.266Z,101305.16
2023-02-06T16:55:28.946Z,101308.38
2023-02-06T16:58:01.625Z,101312.59
2023-02-06T17:00:32.782Z,101313.09
2023-02-06T17:03:01.659Z,101319.00
2023-02-06T17:05:33.617Z,101313.91
2023-02-06T17:08:05.254Z,101311.53
2023-02-06T17:10:34.379Z,101316.78
2023-02-06T17:13:03.947Z,101318.97
2023-02-06T17:15:32.987Z,101319.31
2023-02-06T17:18:01.940Z,101328.81
2023-02-06T17:20:35.833Z,101314.69
2023-02-06T17:23:06.260Z,101327.56
2023-02-06T17:25:36.290Z,101329.75
2023-02-06T17:28:07.537Z,101330.94
2023-02-06T17:30:38.338Z,101334.84
2023-02-06T17:33:09.964Z,101339.56
2023-02-06T17:35:41.051Z,101347.00
2023-02-06T17:38:11.859Z,101342.78
2023-02-06T17:40:41.373Z,101333.09
2023-02-06T17:43:10.775Z,101339.50
2023-02-06T17:45:40.683Z,101336.28
2023-02-06T17:48:10.031Z,101336.28
2023-02-06T17:50:41.344Z,101336.44
2023-02-06T17:53:15.444Z,101341.84
2023-02-06T17:55:46.016Z,101342.41
2023-02-06T17:58:16.463Z,101356.16
2023-02-06T18:00:47.901Z,101361.75
2023-02-06T18:03:18.371Z,101361.88
2023-02-06T18:05:56.650Z,101363.91
2023-02-06T18:08:27.453Z,101361.09
2023-02-06T18:10:59.024Z,101360.41
2023-02-06T18:13:29.102Z,101352.56
2023-02-06T18:16:00.978Z,101345.78
2023-02-06T18:18:33.349Z,101355.94
2023-02-06T18:21:03.331Z,101353.56
2023-02-06T18:23:34.097Z,101356.56
2023-02-06T18:26:05.304Z,101362.34
2023-02-06T18:28:35.217Z,101363.50
2023-02-06T18:31:04.991Z,101365.72
2023-02-06T18:33:37.050Z,101364.00
2023-02-06T18:36:07.728Z,101369.59
2023-02-06T18:38:38.482Z,101371.63
2023-02-06T18:41:29.994Z,101369.91
2023-02-06T18:44:02.327Z,101370.41
2023-02-06T18:46:32.913Z,101371.44
2023-02-06T18:49:03.780Z,101369.88
2023-02-06T18:51:34.053Z,101372.72
2023-02-06T18:54:10.462Z,101374.63
2023-02-06T18:56:41.500Z,101368.66
2023-02-06T18:59:10.533Z,101367.09
2023-02-06T19:01:40.888Z,101355.41
2023-02-06T19:04:11.327Z,101368.25
2023-02-06T19:06:43.585Z,101373.00
2023-02-06T19:09:17.249Z,101371.63
2023-02-06T19:11:48.665Z,101379.06
2023-02-06T19:14:22.692Z,101381.09
2023-02-06T19:16:55.530Z,101379.53
2023-02-06T19:19:24.975Z,101384.78
2023-02-06T19:21:55.686Z,101383.91
2023-02-06T19:24:30.826Z,101386.81
2023-02-06T19:27:02.332Z,101383.41
2023-02-06T19:29:36.292Z,101388.13
2023-02-06T19:32:10.965Z,101394.72
2023-02-06T19:34:44.556Z,101396.56
2023-02-06T19:37:17.593Z,101398.41
2023-02-06T19:39:50.589Z,101395.00
2023-02-06T19:42:21.134Z,101400.44
2023-02-06T19:44:55.890Z,101407.69
2023-02-06T19:47:27.401Z,101415.00
2023-02-06T19:49:57.502Z,101414.28
2023-02-06T19:52:29.037Z,101408.84
2023-02-06T19:55:00.718Z,101412.59
2023-02-06T19:57:31.364Z,101419.16
2023-02-06T20:00:00.917Z,101403.91
2023-02-06T20:02:32.552Z,101407.63
2023-02-06T20:05:06.374Z,101418.59
2023-02-06T20:07:38.303Z,101417.91
2023-02-06T20:10:10.510Z,101418.25
2023-02-06T20:12:41.136Z,101420.78
2023-02-06T20:15:12.670Z,101413.53
2023-02-06T20:17:42.894Z,101411.66
2023-02-06T20:20:17.638Z,101417.09
2023-02-06T20:22:48.369Z,101407.25
2023-02-06T20:25:21.926Z,101403.84
2023-02-06T20:27:53.182Z,101401.16
2023-02-06T20:30:24.700Z,101398.59
2023-02-06T20:32:56.346Z,101387.38
2023-02-06T20:35:26.351Z,101389.25
2023-02-06T20:37:55.936Z,101389.53
2023-02-06T20:40:27.671Z,101395.13
2023-02-06T20:42:57.001Z,101396.09
2023-02-06T20:45:26.591Z,101387.28
2023-02-06T20:47:59.418Z,101392.88
2023-02-06T20:50:30.081Z,101393.03
2023-02-06T20:53:00.259Z,101392.47
2023-02-06T20:55:30.949Z,101405.31
2023-02-06T20:58:00.808Z,101409.00
2023-02-06T21:00:30.646Z,101409.34
2023-02-06T21:02:59.851Z,101417.59
2023-02-06T21:05:31.059Z,101429.28
2023-02-06T21:08:01.445Z,101432.16
2023-02-06T21:10:32.466Z,101431.75
2023-02-06T21:13:00.996Z,101440.56
2023-02-06T21:15:29.966Z,101445.97
2023-02-06T21:17:58.723Z,101448.50
2023-02-06T21:20:27.262Z,101450.22
2023-02-06T21:22:56.203Z,101444.66
2023-02-06T21:25:26.025Z,101447.22
2023-02-06T21:27:56.239Z,101447.22
2023-02-06T21:30:24.958Z,101446.38
2023-02-06T21:32:53.490Z,101432.84
2023-02-06T21:35:21.984Z,101426.75
2023-02-06T21:37:50.570Z,101427.88
2023-02-06T21:40:19.279Z,101434.44
2023-02-06T21:42:47.734Z,101435.78
2023-02-06T21:45:17.803Z,101429.78
2023-02-06T21:47:46.253Z,101435.53
2023-02-06T21:50:14.958Z,101431.41
2023-02-06T21:52:43.508Z,101444.41
2023-02-06T21:55:11.952Z,101449.25
2023-02-06T21:57:40.328Z,101451.25
2023-02-06T22:00:10.995Z,101456.97
2023-02-06T22:02:40.840Z,101461.81
2023-02-06T22:05:09.783Z,101471.94
2023-02-06T22:07:39.289Z,101471.41
2023-02-06T22:10:12.040Z,101469.97
2023-02-06T22:12:40.496Z,101462.19
2023-02-06T22:15:10.841Z,101472.44
2023-02-06T22:17:40.718Z,101474.59
2023-02-06T22:20:10.056Z,101480.28
2023-02-06T22:22:38.801Z,101490.53
2023-02-06T22:25:09.087Z,101487.97
2023-02-06T22:27:38.969Z,101491.81
2023-02-06T22:30:09.820Z,101495.66
2023-02-06T22:32:40.980Z,101491.28
2023-02-06T22:35:10.057Z,101495.81
2023-02-06T22:37:38.472Z,101496.81
2023-02-06T22:40:08.347Z,101503.41
2023-02-06T22:42:36.899Z,101500.81
2023-02-06T22:45:06.995Z,101496.56
2023-02-06T22:47:35.414Z,101498.56
2023-02-06T22:50:05.669Z,101507.81
2023-02-06T22:52:52.186Z,101509.81
2023-02-06T22:55:20.540Z,101516.34
2023-02-06T22:57:48.970Z,101523.75
2023-02-06T23:00:18.514Z,101519.47
2023-02-06T23:02:47.641Z,101525.03
2023-02-06T23:05:17.789Z,101535.16
2023-02-06T23:07:46.229Z,101540.13
2023-02-06T23:10:14.637Z,101548.50
2023-02-06T23:12:43.066Z,101537.16
2023-02-06T23:15:12.069Z,101535.59
2023-02-06T23:17:40.504Z,101553.63
2023-02-06T23:20:10.746Z,101548.38
2023-02-06T23:22:40.495Z,101556.63
2023-02-06T23:25:10.246Z,101550.50
2023-02-06T23:27:38.614Z,101548.66
2023-02-06T23:30:08.325Z,101555.91
2023-02-06T23:32:36.726Z,101556.06
2023-02-06T23:35:05.198Z,101556.06
2023-02-06T23:37:33.629Z,101551.63
2023-02-06T23:40:03.560Z,101559.91
2023-02-06T23:42:32.339Z,101556.34
2023-02-06T23:45:00.731Z,101565.56
2023-02-06T23:47:29.150Z,101560.16
2023-02-06T23:49:57.615Z,101563.03
2023-02-06T23:52:25.969Z,101578.38
2023-02-06T23:54:54.347Z,101573.13
2023-02-06T23:57:24.226Z,101570.53
2023-02-06T23:59:52.644Z,101575.13
